Big Bear Station Historical Data
Daily Summary for August 7, 2017 Units:  English    Metric   Both
Next Day »
Daily Weekly Monthly Yearly Custom
  High: Low: Average:
Temperature: 81.9 °F 50.5 °F 65.2 °F
Dew Point: 51.6 °F 27.6 °F 43.4 °F
Humidity: 88% 21% 51%
Wind Speed: 7.8mph 0.0mph 2mph
Wind Gust: -999.0mph - -
Wind- - SW
Pressure: 30.29 in 30.25 in -
Precipitation: 0.00 in    
Historical Graphs
 
 
Tabular Data for August 7, 2017
Time Temperature Dew Point Pressure Wind Wind Speed Wind Gust Humidity Rainfall Rate (Hourly)
00:06 56.1 °F 50.4 °F 30.26 in Calm   -999.0 mph 81% 0 in
00:21 55.8 °F 50.4 °F 30.26 in SSW 1.7 mph -999.0 mph 82% 0 in
00:37 55.2 °F 49.5 °F 30.26 in Calm   -999.0 mph 81% 0 in
00:52 54.7 °F 49.0 °F 30.26 in Calm   -999.0 mph 81% 0 in
01:07 54.5 °F 48.5 °F 30.26 in South 1.1 mph -999.0 mph 80% 0 in
01:22 54.3 °F 48.3 °F 30.26 in Calm   -999.0 mph 80% 0 in
02:23 53.1 °F 47.8 °F 30.25 in Calm   -999.0 mph 82% 0 in
02:38 52.9 °F 47.9 °F 30.25 in South 1.7 mph -999.0 mph 83% 0 in
02:54 52.5 °F 47.5 °F 30.25 in South 1.7 mph -999.0 mph 83% 0 in
03:09 52.7 °F 48.0 °F 30.25 in South 1.7 mph -999.0 mph 84% 0 in
03:24 52.3 °F 47.3 °F 30.25 in South 1.7 mph -999.0 mph 83% 0 in
03:39 52.3 °F 47.3 °F 30.25 in Calm   -999.0 mph 83% 0 in
03:54 52.2 °F 47.2 °F 30.25 in South 1.7 mph -999.0 mph 83% 0 in
04:10 52.0 °F 47.3 °F 30.25 in South 2.2 mph -999.0 mph 84% 0 in
04:25 51.6 °F 46.9 °F 30.25 in SSE 1.7 mph -999.0 mph 84% 0 in
04:40 51.4 °F 46.7 °F 30.25 in South 1.1 mph -999.0 mph 84% 0 in
04:55 51.3 °F 46.6 °F 30.25 in Calm   -999.0 mph 84% 0 in
05:10 51.3 °F 46.9 °F 30.25 in South 1.1 mph -999.0 mph 85% 0 in
05:26 51.6 °F 47.5 °F 30.25 in NNE 1.1 mph -999.0 mph 86% 0 in
05:41 51.1 °F 47.1 °F 30.25 in Calm   -999.0 mph 86% 0 in
05:56 50.7 °F 47.0 °F 30.25 in Calm   -999.0 mph 87% 0 in
06:11 50.7 °F 47.3 °F 30.26 in Calm   -999.0 mph 88% 0 in
06:27 50.5 °F 47.1 °F 30.26 in Calm   -999.0 mph 88% 0 in
06:42 50.7 °F 47.3 °F 30.26 in Calm   -999.0 mph 88% 0 in
06:57 50.7 °F 47.3 °F 30.26 in Calm   -999.0 mph 88% 0 in
07:12 51.1 °F 46.7 °F 30.27 in Calm   -999.0 mph 85% 0 in
07:27 51.8 °F 46.8 °F 30.27 in Calm   -999.0 mph 83% 0 in
07:43 52.2 °F 47.5 °F 30.27 in Calm   -999.0 mph 84% 0 in
07:58 53.2 °F 48.2 °F 30.27 in Calm   -999.0 mph 83% 0 in
08:13 54.1 °F 47.4 °F 30.27 in Calm   -999.0 mph 78% 0 in
08:28 55.8 °F 49.0 °F 30.28 in Calm   -999.0 mph 78% 0 in
08:43 57.6 °F 50.4 °F 30.28 in Calm   -999.0 mph 77% 0 in
08:59 59.7 °F 51.0 °F 30.28 in Calm   -999.0 mph 73% 0 in
09:14 61.9 °F 51.6 °F 30.27 in Calm   -999.0 mph 69% 0 in
09:29 63.7 °F 44.2 °F 30.28 in Calm   -999.0 mph 49% 0 in
09:44 67.5 °F 41.7 °F 30.28 in WNW 2.7 mph -999.0 mph 39% 0 in
09:59 70.9 °F 39.6 °F 30.28 in NNW 3.2 mph -999.0 mph 32% 0 in
10:15 71.4 °F 40.8 °F 30.28 in NNW 2.7 mph -999.0 mph 33% 0 in
10:30 72.3 °F 37.4 °F 30.28 in ENE 1.7 mph -999.0 mph 28% 0 in
10:45 73.8 °F 42.1 °F 30.28 in NNW 3.2 mph -999.0 mph 32% 0 in
11:00 75.4 °F 44.3 °F 30.28 in NW 3.7 mph -999.0 mph 33% 0 in
11:15 76.3 °F 45.9 °F 30.29 in NNW 3.7 mph -999.0 mph 34% 0 in
11:31 76.8 °F 46.3 °F 30.28 in NW 5.3 mph -999.0 mph 34% 0 in
11:46 78.1 °F 45.8 °F 30.28 in North 4.7 mph -999.0 mph 32% 0 in
12:01 78.4 °F 46.1 °F 30.28 in NW 3.7 mph -999.0 mph 32% 0 in
12:17 79.5 °F 47.1 °F 30.28 in SSE 2.7 mph -999.0 mph 32% 0 in
12:32 80.8 °F 49.0 °F 30.28 in WSW 3.2 mph -999.0 mph 33% 0 in
12:47 80.1 °F 47.6 °F 30.28 in West 2.7 mph -999.0 mph 32% 0 in
13:03 79.3 °F 47.7 °F 30.28 in NNE 7.8 mph -999.0 mph 33% 0 in
13:18 81.0 °F 47.5 °F 30.28 in West 4.7 mph -999.0 mph 31% 0 in
13:34 80.6 °F 47.2 °F 30.28 in North 4.7 mph -999.0 mph 31% 0 in
13:49 81.1 °F 45.8 °F 30.28 in SW 5.3 mph -999.0 mph 29% 0 in
14:04 80.2 °F 45.1 °F 30.27 in NNE 4.2 mph -999.0 mph 29% 0 in
14:19 80.2 °F 46.0 °F 30.27 in North 3.2 mph -999.0 mph 30% 0 in
14:35 80.2 °F 46.0 °F 30.27 in NNW 3.7 mph -999.0 mph 30% 0 in
14:51 80.6 °F 46.3 °F 30.27 in NNW 6.3 mph -999.0 mph 30% 0 in
15:06 79.9 °F 45.7 °F 30.27 in SSE 3.7 mph -999.0 mph 30% 0 in
15:21 79.5 °F 45.4 °F 30.26 in West 3.2 mph -999.0 mph 30% 0 in
15:36 80.1 °F 48.4 °F 30.26 in South 1.7 mph -999.0 mph 33% 0 in
15:51 78.1 °F 47.5 °F 30.26 in North 3.7 mph -999.0 mph 34% 0 in
16:07 77.5 °F 46.1 °F 30.26 in NE 5.8 mph -999.0 mph 33% 0 in
16:22 77.7 °F 45.5 °F 30.26 in NNW 2.7 mph -999.0 mph 32% 0 in
16:37 77.7 °F 43.8 °F 30.26 in NW 6.3 mph -999.0 mph 30% 0 in
16:52 79.0 °F 43.1 °F 30.26 in NNW 4.2 mph -999.0 mph 28% 0 in
17:07 81.9 °F 44.6 °F 30.26 in NNW 4.2 mph -999.0 mph 27% 0 in
17:23 81.7 °F 43.5 °F 30.26 in NW 2.7 mph -999.0 mph 26% 0 in
17:38 80.8 °F 40.6 °F 30.25 in WNW 4.2 mph -999.0 mph 24% 0 in
17:53 80.2 °F 42.2 °F 30.25 in NNW 1.7 mph -999.0 mph 26% 0 in
18:09 78.8 °F 42.0 °F 30.25 in WNW 4.2 mph -999.0 mph 27% 0 in
18:24 78.1 °F 37.3 °F 30.25 in SE 1.1 mph -999.0 mph 23% 0 in
18:40 75.7 °F 33.0 °F 30.25 in North 2.7 mph -999.0 mph 21% 0 in
18:55 72.1 °F 32.3 °F 30.25 in West 3.7 mph -999.0 mph 23% 0 in
19:10 69.8 °F 29.2 °F 30.26 in NNE 4.7 mph -999.0 mph 22% 0 in
19:26 67.8 °F 43.2 °F 30.26 in WSW 1.1 mph -999.0 mph 41% 0 in
19:41 66.9 °F 43.7 °F 30.26 in East 2.2 mph -999.0 mph 43% 0 in
19:56 65.5 °F 44.2 °F 30.26 in Calm   -999.0 mph 46% 0 in
20:12 64.2 °F 40.0 °F 30.26 in SSE 2.2 mph -999.0 mph 41% 0 in
20:27 63.5 °F 37.4 °F 30.27 in Calm   -999.0 mph 38% 0 in
20:42 62.6 °F 37.3 °F 30.27 in Calm   -999.0 mph 39% 0 in
20:57 61.9 °F 35.3 °F 30.27 in ESE 1.1 mph -999.0 mph 37% 0 in
21:12 61.0 °F 30.9 °F 30.27 in SE 1.1 mph -999.0 mph 32% 0 in
21:28 60.6 °F 32.1 °F 30.27 in South 1.7 mph -999.0 mph 34% 0 in
21:43 60.1 °F 30.9 °F 30.28 in Calm   -999.0 mph 33% 0 in
21:58 59.5 °F 30.4 °F 30.28 in Calm   -999.0 mph 33% 0 in
22:13 59.5 °F 32.5 °F 30.28 in ESE 1.7 mph -999.0 mph 36% 0 in
22:28 59.5 °F 31.8 °F 30.28 in South 1.7 mph -999.0 mph 35% 0 in
22:44 59.0 °F 29.2 °F 30.28 in SSE 2.2 mph -999.0 mph 32% 0 in
22:59 58.6 °F 31.0 °F 30.28 in SSE 2.2 mph -999.0 mph 35% 0 in
23:14 58.1 °F 31.3 °F 30.28 in SSE 1.7 mph -999.0 mph 36% 0 in
23:29 57.7 °F 30.9 °F 30.28 in South 1.7 mph -999.0 mph 36% 0 in
23:45 57.2 °F 27.6 °F 30.28 in SSE 1.7 mph -999.0 mph 32% 0 in
Big Bear CA Weather